createdAt,value
2018-04-01T00:02:16.903Z,32.33
2018-04-01T00:04:44.674Z,34.87
2018-04-01T00:07:11.673Z,32.93
2018-04-01T00:09:38.675Z,33.23
2018-04-01T00:12:05.678Z,34.70
2018-04-01T00:14:32.791Z,35.13
2018-04-01T00:16:59.803Z,36.03
2018-04-01T00:19:26.821Z,37.23
2018-04-01T00:21:53.850Z,37.57
2018-04-01T00:24:20.815Z,37.20
2018-04-01T00:26:47.797Z,35.03
2018-04-01T00:29:14.806Z,35.90
2018-04-01T00:31:42.296Z,35.67
2018-04-01T00:34:09.287Z,35.10
2018-04-01T00:36:36.255Z,36.03
2018-04-01T00:39:03.263Z,34.47
2018-04-01T00:41:30.277Z,35.60
2018-04-01T00:43:57.311Z,35.63
2018-04-01T00:46:25.089Z,36.43
2018-04-01T00:48:52.838Z,37.93
2018-04-01T00:51:20.608Z,38.87
2018-04-01T00:53:48.413Z,39.37
2018-04-01T00:56:15.424Z,38.37
2018-04-01T00:58:42.434Z,38.97
2018-04-01T01:01:09.428Z,38.27
2018-04-01T01:03:37.228Z,38.07
2018-04-01T01:06:04.233Z,37.17
2018-04-01T01:08:31.971Z,35.53
2018-04-01T01:10:59.564Z,38.00
2018-04-01T01:13:27.324Z,37.63
2018-04-01T01:15:55.095Z,36.17
2018-04-01T01:18:22.844Z,37.03
2018-04-01T01:20:50.598Z,36.03
2018-04-01T01:23:17.636Z,36.50
2018-04-01T01:25:44.659Z,33.90
2018-04-01T01:28:11.649Z,35.83
2018-04-01T01:30:39.424Z,35.30
2018-04-01T01:33:07.166Z,36.87
2018-04-01T01:35:34.963Z,35.93
2018-04-01T01:38:02.706Z,34.83
2018-04-01T01:40:29.792Z,35.60
2018-04-01T01:42:56.783Z,33.33
2018-04-01T01:45:23.942Z,33.63
2018-04-01T01:47:50.965Z,31.53
2018-04-01T01:50:17.962Z,33.83
2018-04-01T01:52:45.699Z,33.93
2018-04-01T01:55:12.715Z,32.87
2018-04-01T01:57:39.699Z,35.40
2018-04-01T02:00:06.759Z,34.60
2018-04-01T02:02:34.513Z,33.87
2018-04-01T02:05:02.059Z,31.93
2018-04-01T02:07:29.079Z,31.10
2018-04-01T02:09:56.118Z,32.53
2018-04-01T02:12:23.088Z,30.80
2018-04-01T02:14:50.068Z,32.07
2018-04-01T02:17:17.918Z,31.33
2018-04-01T02:19:44.941Z,33.77
2018-04-01T02:22:11.975Z,32.47
2018-04-01T02:24:38.976Z,32.77
2018-04-01T02:27:06.723Z,34.50
2018-04-01T02:29:33.742Z,32.30
2018-04-01T02:32:00.713Z,33.23
2018-04-01T02:34:27.784Z,34.43
2018-04-01T02:36:55.604Z,32.37
2018-04-01T02:39:22.605Z,33.93
2018-04-01T02:41:50.401Z,34.20
2018-04-01T02:44:17.492Z,32.90
2018-04-01T02:46:45.320Z,34.27
2018-04-01T02:49:12.328Z,33.20
2018-04-01T02:51:40.103Z,34.70
2018-04-01T02:54:07.110Z,32.87
2018-04-01T02:56:34.234Z,34.77
2018-04-01T02:59:01.225Z,33.77
2018-04-01T03:01:29.035Z,35.80
2018-04-01T03:03:56.025Z,33.97
2018-04-01T03:06:23.093Z,34.27
2018-04-01T03:08:50.855Z,34.43
2018-04-01T03:13:52.104Z,35.50
2018-04-01T03:16:19.112Z,34.57
2018-04-01T03:18:46.158Z,37.00
2018-04-01T03:21:13.176Z,36.53
2018-04-01T03:23:40.909Z,38.57
2018-04-01T03:26:07.935Z,36.17
2018-04-01T03:28:34.904Z,37.70
2018-04-01T03:31:02.484Z,36.53
2018-04-01T03:33:30.245Z,36.80
2018-04-01T03:35:58.001Z,38.33
2018-04-01T03:38:25.008Z,38.43
2018-04-01T03:40:52.082Z,38.40
2018-04-01T03:43:19.097Z,37.90
2018-04-01T03:45:46.104Z,39.03
2018-04-01T03:48:13.918Z,38.00
2018-04-01T03:50:40.909Z,36.53
2018-04-01T03:53:08.735Z,38.47
2018-04-01T03:55:35.700Z,37.23
2018-04-01T03:58:02.720Z,37.60
2018-04-01T04:00:29.725Z,37.67
2018-04-01T04:02:57.533Z,40.10
2018-04-01T04:05:24.638Z,38.77
2018-04-01T04:07:52.401Z,37.10
2018-04-01T04:10:20.183Z,39.07
2018-04-01T04:12:47.156Z,38.07
2018-04-01T04:15:14.163Z,40.00
2018-04-01T04:17:41.162Z,38.87
2018-04-01T04:20:08.210Z,38.50
2018-04-01T04:22:35.539Z,38.30
2018-04-01T04:25:02.529Z,38.87
2018-04-01T04:27:29.534Z,40.07
2018-04-01T04:29:56.532Z,40.60
2018-04-01T04:32:23.550Z,40.43
2018-04-01T04:34:50.548Z,40.23
2018-04-01T04:37:18.360Z,41.77
2018-04-01T04:39:45.403Z,42.47
2018-04-01T04:42:12.447Z,43.47
2018-04-01T04:44:39.458Z,44.87
2018-04-01T04:47:07.251Z,45.70
2018-04-01T04:49:34.263Z,42.93
2018-04-01T04:52:02.073Z,46.47
2018-04-01T04:54:29.072Z,45.57
2018-04-01T04:56:56.856Z,46.63
2018-04-01T04:59:23.873Z,44.00
2018-04-01T05:01:50.874Z,47.00
2018-04-01T05:04:17.852Z,44.33
2018-04-01T05:06:44.906Z,41.93
2018-04-01T05:09:11.907Z,44.37
2018-04-01T05:11:38.955Z,39.87
2018-04-01T05:14:06.010Z,43.33
2018-04-01T05:16:33.055Z,43.07
2018-04-01T05:19:00.063Z,45.10
2018-04-01T05:21:27.816Z,46.07
2018-04-01T05:23:55.586Z,47.30
2018-04-01T05:26:23.350Z,47.27
2018-04-01T05:28:51.129Z,47.07
2018-04-01T05:31:18.939Z,47.63
2018-04-01T05:33:45.938Z,48.60
2018-04-01T05:36:13.732Z,49.83
2018-04-01T05:38:40.739Z,50.30
2018-04-01T05:41:09.469Z,45.67
2018-04-01T05:43:36.462Z,43.47
2018-04-01T05:46:03.468Z,47.27
2018-04-01T05:48:30.437Z,48.93
2018-04-01T05:50:57.507Z,51.47
2018-04-01T05:53:24.509Z,50.83
2018-04-01T05:55:52.276Z,52.53
2018-04-01T05:58:19.258Z,51.57
2018-04-01T06:00:46.313Z,53.37
2018-04-01T06:03:13.293Z,53.47
2018-04-01T06:05:40.288Z,54.47
2018-04-01T06:08:07.283Z,58.00
2018-04-01T06:10:35.190Z,60.03
2018-04-01T06:13:02.990Z,59.70
2018-04-01T06:15:30.034Z,61.13
2018-04-01T06:17:56.998Z,63.07
2018-04-01T06:20:24.773Z,61.87
2018-04-01T06:22:52.581Z,63.60
2018-04-01T06:25:19.601Z,65.67
2018-04-01T06:27:46.637Z,66.57
2018-04-01T06:30:13.691Z,68.03
2018-04-01T06:32:40.703Z,67.97
2018-04-01T06:35:07.693Z,70.00
2018-04-01T06:37:34.712Z,66.73
2018-04-01T06:40:02.614Z,65.83
2018-04-01T06:42:30.337Z,65.50
2018-04-01T06:44:58.147Z,64.70
2018-04-01T06:47:25.404Z,65.43
2018-04-01T06:49:52.408Z,65.27
2018-04-01T06:52:20.310Z,63.63
2018-04-01T06:54:47.331Z,67.43
2018-04-01T06:57:15.094Z,66.83
2018-04-01T06:59:42.850Z,67.20
2018-04-01T07:02:10.640Z,65.83
2018-04-01T07:04:37.635Z,65.93
2018-04-01T07:07:06.751Z,66.40
2018-04-01T07:09:33.806Z,68.53
2018-04-01T07:12:00.770Z,70.10
2018-04-01T07:14:27.858Z,69.47
2018-04-01T07:19:28.227Z,69.73
2018-04-01T07:21:55.214Z,67.33
2018-04-01T07:24:22.266Z,65.57
2018-04-01T07:26:49.272Z,65.43
2018-04-01T07:29:16.271Z,62.37
2018-04-01T07:31:43.247Z,62.67
2018-04-01T07:34:10.415Z,63.93
2018-04-01T07:36:37.426Z,62.70
2018-04-01T07:39:04.524Z,62.10
2018-04-01T07:41:32.307Z,63.20
2018-04-01T07:44:00.682Z,63.20
2018-04-01T07:46:28.469Z,60.57
2018-04-01T07:48:55.463Z,65.97
2018-04-01T07:51:22.522Z,59.93
2018-04-01T07:53:49.536Z,61.20
2018-04-01T07:56:16.551Z,64.50
2018-04-01T07:58:43.519Z,60.80
2018-04-01T08:01:10.506Z,57.17
2018-04-01T08:03:38.296Z,59.73
2018-04-01T08:06:05.307Z,55.70
2018-04-01T08:08:33.897Z,57.83
2018-04-01T08:11:00.935Z,55.20
2018-04-01T08:13:27.929Z,50.80
2018-04-01T08:15:54.985Z,48.27
2018-04-01T08:18:21.974Z,48.33
2018-04-01T08:20:48.961Z,47.20
2018-04-01T08:23:15.973Z,47.43
2018-04-01T08:25:43.020Z,47.40
2018-04-01T08:28:10.018Z,49.53
2018-04-01T08:30:37.001Z,46.87
2018-04-01T08:33:03.999Z,50.00
2018-04-01T08:35:31.000Z,47.17
2018-04-01T08:37:58.608Z,42.37
2018-04-01T08:40:25.607Z,43.10
2018-04-01T08:42:52.650Z,42.03
2018-04-01T08:45:19.627Z,39.77
2018-04-01T08:47:47.399Z,40.17
2018-04-01T08:50:15.152Z,42.33
2018-04-01T08:52:42.895Z,42.73
2018-04-01T08:55:09.878Z,44.03
2018-04-01T08:57:37.684Z,39.93
2018-04-01T09:00:04.688Z,41.77
2018-04-01T09:02:32.452Z,37.93
2018-04-01T09:05:00.458Z,37.07
2018-04-01T09:07:27.540Z,39.97
2018-04-01T09:09:54.627Z,38.23
2018-04-01T09:12:22.384Z,39.17
2018-04-01T09:14:50.164Z,38.17
2018-04-01T09:17:17.257Z,37.70
2018-04-01T09:19:44.277Z,36.10
2018-04-01T09:22:11.318Z,36.33
2018-04-01T09:24:38.345Z,34.90
2018-04-01T09:27:06.088Z,32.97
2018-04-01T09:29:33.061Z,32.27
2018-04-01T09:32:00.799Z,30.47
2018-04-01T09:34:27.798Z,33.00
2018-04-01T09:36:54.843Z,30.10
2018-04-01T09:39:22.458Z,32.27
2018-04-01T09:41:49.502Z,33.30
2018-04-01T09:44:16.495Z,32.27
2018-04-01T09:46:43.519Z,33.27
2018-04-01T09:49:11.343Z,33.30
2018-04-01T09:51:38.396Z,32.90
2018-04-01T09:54:05.387Z,32.63
2018-04-01T09:56:32.406Z,33.00
2018-04-01T09:58:59.462Z,33.03
2018-04-01T10:01:28.839Z,35.43
2018-04-01T10:03:56.334Z,34.00
2018-04-01T10:06:24.585Z,34.70
2018-04-01T10:08:52.046Z,32.43
2018-04-01T10:11:19.585Z,32.63
2018-04-01T10:13:47.136Z,35.30
2018-04-01T10:16:14.632Z,31.30
2018-04-01T10:18:42.920Z,34.57
2018-04-01T10:21:10.608Z,35.27
2018-04-01T10:23:38.125Z,34.03
2018-04-01T10:26:05.602Z,35.97
2018-04-01T10:28:33.855Z,34.93
2018-04-01T10:31:01.373Z,36.93
2018-04-01T10:33:28.832Z,35.90
2018-04-01T10:35:56.342Z,44.28
2018-04-01T10:38:24.620Z,36.53
2018-04-01T10:40:52.085Z,35.23
2018-04-01T10:43:19.625Z,34.67
2018-04-01T10:45:47.109Z,32.70
2018-04-01T10:48:15.382Z,29.43
2018-04-01T10:50:43.687Z,30.77
2018-04-01T10:53:11.209Z,30.33
2018-04-01T10:55:38.969Z,29.30
2018-04-01T10:58:06.012Z,27.07
2018-04-01T11:00:33.105Z,28.63
2018-04-01T11:03:00.109Z,30.77
2018-04-01T11:05:27.133Z,28.97
2018-04-01T11:07:54.120Z,30.37
2018-04-01T11:10:21.914Z,28.53
2018-04-01T11:12:48.920Z,28.93
2018-04-01T11:15:15.957Z,31.00
2018-04-01T11:17:43.734Z,28.23
2018-04-01T11:20:11.544Z,28.90
2018-04-01T11:22:38.526Z,29.60
2018-04-01T11:25:05.512Z,29.93
2018-04-01T11:27:32.525Z,29.90
2018-04-01T11:29:59.514Z,29.20
2018-04-01T11:32:26.526Z,28.03
2018-04-01T11:34:53.507Z,25.80
2018-04-01T11:37:20.505Z,25.90
2018-04-01T11:39:47.516Z,27.17
2018-04-01T11:42:14.515Z,28.57
2018-04-01T11:44:41.503Z,26.20
2018-04-01T11:47:08.522Z,25.10
2018-04-01T11:49:36.289Z,27.37
2018-04-01T11:52:04.048Z,26.00
2018-04-01T11:54:31.076Z,26.50
2018-04-01T11:56:58.171Z,25.30
2018-04-01T11:59:25.178Z,25.20
2018-04-01T12:01:52.215Z,25.47
2018-04-01T12:04:19.208Z,21.77
2018-04-01T12:06:46.235Z,21.17
2018-04-01T12:09:14.679Z,20.67
2018-04-01T12:11:41.657Z,19.20
2018-04-01T12:14:09.441Z,22.17
2018-04-01T12:16:36.454Z,20.03
2018-04-01T12:19:03.437Z,23.63
2018-04-01T12:21:30.470Z,21.10
2018-04-01T12:23:58.250Z,20.53
2018-04-01T12:26:26.012Z,20.93
2018-04-01T12:28:53.004Z,20.33
2018-04-01T12:31:19.994Z,21.30
2018-04-01T12:33:47.771Z,21.40
2018-04-01T12:36:14.795Z,20.90
2018-04-01T12:38:41.859Z,19.70
2018-04-01T12:41:09.610Z,20.37
2018-04-01T12:43:37.395Z,17.97
2018-04-01T12:46:04.446Z,19.30
2018-04-01T12:48:31.428Z,19.33
2018-04-01T12:50:58.473Z,19.80
2018-04-01T12:53:26.300Z,18.83
2018-04-01T12:55:53.328Z,18.03
2018-04-01T12:58:20.337Z,19.07
2018-04-01T13:00:47.362Z,18.57
2018-04-01T13:03:14.424Z,20.03
2018-04-01T13:05:41.421Z,18.83
2018-04-01T13:08:09.244Z,18.90
2018-04-01T13:10:36.348Z,18.23
2018-04-01T13:13:03.306Z,18.70
2018-04-01T13:15:30.304Z,18.77
2018-04-01T13:17:57.423Z,20.33
2018-04-01T13:20:24.451Z,20.23
2018-04-01T13:22:51.451Z,20.23
2018-04-01T13:25:19.333Z,18.90
2018-04-01T13:27:46.325Z,20.97
2018-04-01T13:30:13.316Z,20.57
2018-04-01T13:32:40.311Z,22.37
2018-04-01T13:35:07.371Z,21.93
2018-04-01T13:37:35.085Z,20.07
2018-04-01T13:40:02.063Z,20.90
2018-04-01T13:42:29.049Z,23.57
2018-04-01T13:44:56.056Z,21.90
2018-04-01T13:47:23.879Z,22.97
2018-04-01T13:49:50.892Z,24.67
2018-04-01T13:52:17.925Z,23.47
2018-04-01T13:54:44.930Z,23.07
2018-04-01T13:57:12.050Z,23.93
2018-04-01T13:59:39.083Z,21.57
2018-04-01T14:02:06.151Z,22.33
2018-04-01T14:04:33.176Z,24.03
2018-04-01T14:07:00.258Z,24.83
2018-04-01T14:09:27.265Z,22.80
2018-04-01T14:11:54.308Z,23.17
2018-04-01T14:14:21.322Z,25.57
2018-04-01T14:16:48.368Z,25.03
2018-04-01T14:19:15.331Z,26.07
2018-04-01T14:21:43.129Z,28.33
2018-04-01T14:24:10.139Z,29.70
2018-04-01T14:26:38.002Z,31.53
2018-04-01T14:29:06.664Z,28.93
2018-04-01T14:31:33.728Z,32.03
2018-04-01T14:34:00.774Z,28.63
2018-04-01T14:36:27.787Z,30.10
2018-04-01T14:38:54.805Z,28.87
2018-04-01T14:41:21.813Z,28.43
2018-04-01T14:43:48.848Z,27.83
2018-04-01T14:46:15.905Z,27.20
2018-04-01T14:48:42.868Z,26.73
2018-04-01T14:51:10.728Z,25.07
2018-04-01T14:53:38.613Z,24.27
2018-04-01T14:56:05.814Z,24.67
2018-04-01T14:58:32.791Z,25.53
2018-04-01T15:01:00.543Z,23.30
2018-04-01T15:03:27.571Z,25.23
2018-04-01T15:05:54.605Z,24.87
2018-04-01T15:08:21.681Z,24.43
2018-04-01T15:10:48.656Z,25.23
2018-04-01T15:13:16.845Z,24.10
2018-04-01T15:15:43.844Z,24.60
2018-04-01T15:18:10.912Z,25.23
2018-04-01T15:20:38.776Z,24.43
2018-04-01T15:23:05.850Z,25.40
2018-04-01T15:25:32.871Z,24.70
2018-04-01T15:27:59.831Z,25.13
2018-04-01T15:30:27.651Z,24.93
2018-04-01T15:32:54.627Z,26.37
2018-04-01T15:35:22.561Z,26.13
2018-04-01T15:37:49.563Z,25.83
2018-04-01T15:40:17.476Z,24.20
2018-04-01T15:42:44.459Z,23.83
2018-04-01T15:45:11.577Z,26.43
2018-04-01T15:47:38.600Z,26.30
2018-04-01T15:50:05.613Z,22.40
2018-04-01T15:52:32.667Z,27.63
2018-04-01T15:55:00.689Z,34.33
2018-04-01T15:57:27.686Z,34.57
2018-04-01T15:59:54.708Z,30.33
2018-04-01T16:02:21.694Z,29.17
2018-04-01T16:04:48.708Z,31.23
2018-04-01T16:07:15.734Z,31.37
2018-04-01T16:09:42.776Z,34.63
2018-04-01T16:12:09.864Z,33.73
2018-04-01T16:14:37.720Z,31.30
2018-04-01T16:17:05.507Z,29.93
2018-04-01T16:19:33.268Z,28.70
2018-04-01T16:22:01.059Z,27.40
2018-04-01T16:24:28.072Z,29.90
2018-04-01T16:26:55.883Z,30.70
2018-04-01T16:29:22.883Z,29.97
2018-04-01T16:31:50.648Z,30.30
2018-04-01T16:34:18.417Z,30.77
2018-04-01T16:36:46.186Z,28.57
2018-04-01T16:39:14.013Z,21.13
2018-04-01T16:41:41.703Z,14.67
2018-04-01T16:44:09.526Z,16.77
2018-04-01T16:46:37.142Z,18.47
2018-04-01T16:49:04.890Z,20.07
2018-04-01T16:51:31.919Z,16.87
2018-04-01T16:53:59.697Z,17.57
2018-04-01T16:56:26.674Z,20.33
2018-04-01T16:58:53.668Z,18.27
2018-04-01T17:01:20.660Z,18.37
2018-04-01T17:03:49.075Z,19.03
2018-04-01T17:06:16.122Z,19.23
2018-04-01T17:08:43.204Z,18.73
2018-04-01T17:11:11.114Z,18.87
2018-04-01T17:13:38.906Z,18.77
2018-04-01T17:16:05.900Z,20.10
2018-04-01T17:18:33.012Z,18.70
2018-04-01T17:21:00.024Z,17.40
2018-04-01T17:23:27.039Z,19.13
2018-04-01T17:25:54.868Z,18.27
2018-04-01T17:28:21.874Z,16.50
2018-04-01T17:30:49.653Z,17.40
2018-04-01T17:33:16.691Z,16.33
2018-04-01T17:35:44.445Z,18.17
2018-04-01T17:38:12.285Z,16.40
2018-04-01T17:40:39.274Z,17.13
2018-04-01T17:43:06.291Z,17.73
2018-04-01T17:45:33.343Z,18.10
2018-04-01T17:48:00.377Z,17.03
2018-04-01T17:50:27.440Z,19.90
2018-04-01T17:52:54.440Z,19.97
2018-04-01T17:55:21.460Z,22.87
2018-04-01T17:57:48.466Z,24.80
2018-04-01T18:00:15.492Z,24.57
2018-04-01T18:02:43.262Z,23.83
2018-04-01T18:05:10.299Z,22.80
2018-04-01T18:07:37.288Z,20.33
2018-04-01T18:10:05.112Z,18.97
2018-04-01T18:12:32.114Z,14.03
2018-04-01T18:14:59.895Z,14.53
2018-04-01T18:17:26.911Z,12.37
2018-04-01T18:19:54.888Z,13.23
2018-04-01T18:22:23.356Z,13.03
2018-04-01T18:24:50.391Z,14.20
2018-04-01T18:27:17.424Z,12.73
2018-04-01T18:29:44.467Z,14.87
2018-04-01T18:32:11.498Z,17.07
2018-04-01T18:34:39.570Z,16.13
2018-04-01T18:37:06.564Z,18.07
2018-04-01T18:39:34.049Z,18.93
2018-04-01T18:42:01.869Z,20.87
2018-04-01T18:44:28.917Z,21.83
2018-04-01T18:46:55.954Z,24.67
2018-04-01T18:49:22.951Z,26.10
2018-04-01T18:51:50.784Z,28.30
2018-04-01T18:54:17.771Z,28.13
2018-04-01T18:56:45.638Z,29.87
2018-04-01T18:59:13.444Z,31.37
2018-04-01T19:01:41.050Z,30.97
2018-04-01T19:04:08.060Z,34.77
2018-04-01T19:06:35.060Z,36.70
2018-04-01T19:09:02.142Z,36.37
2018-04-01T19:11:29.178Z,35.83
2018-04-01T19:13:56.205Z,38.90
2018-04-01T19:16:24.496Z,41.77
2018-04-01T19:18:52.029Z,41.03
2018-04-01T19:21:19.506Z,40.47
2018-04-01T19:23:47.035Z,39.93
2018-04-01T19:26:14.504Z,39.53
2018-04-01T19:28:42.808Z,38.67
2018-04-01T19:31:10.278Z,37.87
2018-04-01T19:33:37.781Z,40.23
2018-04-01T19:36:05.244Z,38.70
2018-04-01T19:38:32.822Z,41.70
2018-04-01T19:41:01.071Z,42.07
2018-04-01T19:43:28.582Z,46.67
2018-04-01T19:45:56.047Z,48.50
2018-04-01T19:48:23.575Z,47.10
2018-04-01T19:50:51.903Z,47.60
2018-04-01T19:53:24.048Z,47.67
2018-04-01T19:55:52.274Z,47.53
2018-04-01T19:58:19.884Z,47.13
2018-04-01T20:00:47.404Z,45.10
2018-04-01T20:03:14.996Z,45.33
2018-04-01T20:05:42.551Z,45.20
2018-04-01T20:08:10.083Z,46.37
2018-04-01T20:10:38.365Z,48.73
2018-04-01T20:13:06.652Z,45.67
2018-04-01T20:15:34.156Z,43.50
2018-04-01T20:18:02.476Z,45.93
2018-04-01T20:20:30.009Z,46.77
2018-04-01T20:22:57.561Z,43.23
2018-04-01T20:25:27.804Z,43.37
2018-04-01T20:27:56.110Z,45.83
2018-04-01T20:30:24.382Z,48.87
2018-04-01T20:32:52.668Z,49.40
2018-04-01T20:35:21.112Z,52.40
2018-04-01T20:37:49.439Z,54.33
2018-04-01T20:40:17.043Z,53.60
2018-04-01T20:42:44.538Z,56.50
2018-04-01T20:45:12.826Z,58.90
2018-04-01T20:47:40.343Z,55.33
2018-04-01T20:50:07.855Z,56.23
2018-04-01T20:52:35.362Z,56.37
2018-04-01T20:55:02.854Z,55.73
2018-04-01T20:57:31.129Z,55.40
2018-04-01T20:59:59.395Z,54.70
2018-04-01T21:02:27.852Z,58.10
2018-04-01T21:04:55.357Z,55.97
2018-04-01T21:07:22.962Z,55.07
2018-04-01T21:09:50.458Z,56.43
2018-04-01T21:12:18.734Z,58.93
2018-04-01T21:14:46.905Z,58.53
2018-04-01T21:17:15.221Z,57.07
2018-04-01T21:19:42.700Z,57.30
2018-04-01T21:22:10.490Z,55.40
2018-04-01T21:24:38.013Z,54.27
2018-04-01T21:27:06.575Z,48.03
2018-04-01T21:29:34.158Z,51.33
2018-04-01T21:32:01.641Z,50.03
2018-04-01T21:34:29.652Z,50.37
2018-04-01T21:36:57.164Z,52.60
2018-04-01T21:39:24.877Z,52.37
2018-04-01T21:41:52.436Z,52.17
2018-04-01T21:44:20.100Z,53.53
2018-04-01T21:46:47.701Z,54.63
2018-04-01T21:49:15.307Z,53.73
2018-04-01T21:51:43.617Z,57.73
2018-04-01T21:54:11.223Z,57.87
2018-04-01T21:56:38.704Z,54.83
2018-04-01T21:59:07.136Z,54.53
2018-04-01T22:01:34.651Z,55.07
2018-04-01T22:04:02.263Z,54.17
2018-04-01T22:06:29.769Z,53.93
2018-04-01T22:08:57.334Z,54.33
2018-04-01T22:11:24.992Z,53.57
2018-04-01T22:13:52.572Z,53.37
2018-04-01T22:16:20.113Z,50.93
2018-04-01T22:18:47.627Z,57.67
2018-04-01T22:21:15.141Z,61.83
2018-04-01T22:23:42.665Z,68.77
2018-04-01T22:26:10.316Z,73.60
2018-04-01T22:28:37.909Z,74.50
2018-04-01T22:31:06.248Z,82.50
2018-04-01T22:33:33.824Z,86.37
2018-04-01T22:36:01.465Z,89.37
2018-04-01T22:38:29.026Z,87.77
2018-04-01T22:40:56.566Z,87.57
2018-04-01T22:43:24.180Z,87.77
2018-04-01T22:45:51.720Z,91.33
2018-04-01T22:48:19.304Z,90.50
2018-04-01T22:50:47.611Z,91.57
2018-04-01T22:53:15.292Z,91.50
2018-04-01T22:55:42.808Z,92.70
2018-04-01T22:58:10.498Z,92.87
2018-04-01T23:00:38.327Z,94.47
2018-04-01T23:03:06.834Z,95.13
2018-04-01T23:05:34.412Z,94.50
2018-04-01T23:08:01.889Z,94.17
2018-04-01T23:10:29.408Z,92.40
2018-04-01T23:12:56.985Z,91.93
2018-04-01T23:15:24.467Z,94.60
2018-04-01T23:17:52.065Z,94.33
2018-04-01T23:20:21.181Z,92.10
2018-04-01T23:22:49.240Z,92.40
2018-04-01T23:25:17.541Z,93.30
2018-04-01T23:27:45.057Z,90.77
2018-04-01T23:30:12.592Z,92.33
2018-04-01T23:32:40.964Z,92.20
2018-04-01T23:35:08.531Z,94.77
2018-04-01T23:37:36.120Z,94.70
2018-04-01T23:40:04.373Z,93.70
2018-04-01T23:42:31.923Z,92.77
2018-04-01T23:45:00.210Z,96.77
2018-04-01T23:47:27.936Z,95.77
2018-04-01T23:49:55.430Z,95.83
2018-04-01T23:52:22.938Z,99.27
2018-04-01T23:54:51.273Z,102.87
2018-04-01T23:57:18.812Z,103.90
2018-04-01T23:59:46.384Z,108.30
